Time;durP1;ratioP1;P1;durP2;ratioP2;P2;SDS_P1;SDS_P2;PMS_P1;PMS_P2;Temp;Humidity;BMP_temperature;BMP_pressure;BME280_temperature;BME280_humidity;BME280_pressure;Samples;Min_cycle;Max_cycle;Signal;HPM_P1;HPM_P2
2021/05/24 00:03:46;;;;;;;3.97;2.87;;;;;;;11.22;72.07;101008.98;5084658;57;1138991;-74
2021/05/24 00:08:52;;;;;;;4.55;3.42;;;;;;;11.25;71.97;101015.38;5084687;57;1139015;-79
2021/05/24 00:13:59;;;;;;;8.08;2.98;;;;;;;11.21;71.68;101021.84;5084457;57;1138949;-75
2021/05/24 00:19:05;;;;;;;11.00;3.07;;;;;;;11.20;71.66;101030.74;5084099;57;1139024;-78
2021/05/24 00:24:11;;;;;;;3.03;2.53;;;;;;;11.22;71.73;101034.13;5084009;57;1140591;-76
2021/05/24 00:29:22;;;;;;;5.63;3.27;;;;;;;11.16;71.70;101027.94;5084251;57;1138472;-78
2021/05/24 00:34:25;;;;;;;7.90;3.40;;;;;;;11.15;71.95;101016.50;5084326;57;1138459;-75
2021/05/24 00:39:31;;;;;;;12.93;4.43;;;;;;;11.11;71.82;101025.64;5084372;57;1138583;-76
2021/05/24 00:44:37;;;;;;;10.93;5.37;;;;;;;11.11;71.84;101029.61;5084119;57;1140722;-74
2021/05/24 00:49:44;;;;;;;15.63;6.60;;;;;;;11.13;71.82;101025.54;5084211;57;1141480;-75
2021/05/24 00:54:50;;;;;;;17.62;4.78;;;;;;;11.14;71.84;101027.23;5084347;57;1140732;-78
2021/05/24 00:59:57;;;;;;;9.58;4.35;;;;;;;11.05;71.62;101036.66;5084201;57;1140686;-76
2021/05/24 01:05:04;;;;;;;7.40;3.27;;;;;;;10.92;71.72;101030.08;5084463;57;1138963;-78
2021/05/24 01:10:10;;;;;;;10.20;3.60;;;;;;;10.88;71.86;101031.23;5083833;57;1139021;-77
2021/05/24 01:15:17;;;;;;;7.93;2.47;;;;;;;10.90;72.00;101028.01;5084002;57;1140540;-74
2021/05/24 01:20:27;;;;;;;8.43;3.03;;;;;;;11.00;72.45;101030.02;5084173;57;1138829;-76
2021/05/24 01:25:39;;;;;;;3.03;2.70;;;;;;;11.10;72.54;101021.30;5078015;57;1138449;-76
2021/05/24 01:30:46;;;;;;;;;;;;;;;11.16;72.34;101023.48;5104381;57;1138443;-77
2021/05/24 01:35:52;;;;;;;2.63;2.43;;;;;;;11.17;72.02;101029.16;5097035;57;976073;-75
2021/05/24 01:40:58;;;;;;;5.78;3.08;;;;;;;11.14;71.83;101026.75;5084524;57;1137183;-74
2021/05/24 01:46:05;;;;;;;3.50;2.75;;;;;;;11.14;71.55;101028.08;5083838;57;1138503;-78
2021/05/24 01:51:11;;;;;;;2.83;2.60;;;;;;;11.16;71.38;101026.14;5084003;57;1138430;-74
2021/05/24 01:56:17;;;;;;;3.43;3.13;;;;;;;11.18;71.52;101036.14;5084055;57;1138607;-78
2021/05/24 02:01:23;;;;;;;3.60;3.10;;;;;;;11.15;71.53;101032.39;5084003;57;1138393;-75
2021/05/24 02:06:29;;;;;;;7.93;3.00;;;;;;;11.14;71.49;101032.52;5084097;57;1138500;-74
2021/05/24 02:11:35;;;;;;;3.20;2.40;;;;;;;11.10;71.43;101019.13;5084183;57;1138836;-78
2021/05/24 02:16:55;;;;;;;3.33;2.50;;;;;;;11.10;71.19;101028.40;5084009;57;1138507;-76
2021/05/24 02:21:56;;;;;;;4.30;3.37;;;;;;;11.07;71.05;101039.20;5083268;57;1138630;-72
2021/05/24 02:27:01;;;;;;;8.83;3.07;;;;;;;11.05;71.30;101030.52;5083974;57;1138588;-77
2021/05/24 02:32:07;;;;;;;2.93;2.73;;;;;;;11.01;71.31;101033.00;5083931;57;1139135;-75
2021/05/24 02:37:13;;;;;;;2.63;2.43;;;;;;;10.96;71.25;101030.71;5083996;57;1139088;-78
2021/05/24 02:42:20;;;;;;;2.33;2.20;;;;;;;10.89;71.30;101033.41;5084210;57;1139194;-78
2021/05/24 02:47:27;;;;;;;2.90;2.70;;;;;;;10.75;71.11;101036.17;5084196;57;1138869;-77
2021/05/24 02:52:33;;;;;;;7.63;2.80;;;;;;;10.75;71.64;101034.86;5083865;57;1138831;-77
2021/05/24 02:57:40;;;;;;;4.00;3.30;;;;;;;10.77;71.92;101043.53;5083978;57;1139110;-78
2021/05/24 03:02:47;;;;;;;4.37;3.43;;;;;;;10.80;72.26;101044.17;5083932;57;1139063;-78
2021/05/24 03:07:54;;;;;;;9.38;3.30;;;;;;;10.79;72.25;101039.83;5084818;57;1139120;-75
2021/05/24 03:13:00;;;;;;;4.15;2.52;;;;;;;10.77;72.26;101037.77;5084712;57;1138820;-75
2021/05/24 03:18:05;;;;;;;5.87;4.23;;;;;;;10.81;72.41;101037.08;5084627;57;1138964;-74
2021/05/24 03:23:11;;;;;;;7.53;4.30;;;;;;;10.87;72.38;101041.45;5084570;57;1138692;-74
2021/05/24 03:28:18;;;;;;;4.67;3.47;;;;;;;10.87;72.38;101041.45;5084853;57;1138631;-78
2021/05/24 03:33:24;;;;;;;4.17;3.03;;;;;;;10.88;72.40;101049.76;5084651;57;1138892;-76
2021/05/24 03:38:30;;;;;;;5.63;2.93;;;;;;;10.83;72.42;101051.06;5084689;57;1138797;-76
2021/05/24 03:43:36;;;;;;;2.57;2.37;;;;;;;10.73;72.33;101050.83;5084715;57;1138689;-75
2021/05/24 03:48:43;;;;;;;4.50;2.70;;;;;;;10.69;72.49;101053.83;5084704;57;1138463;-75
2021/05/24 03:53:49;;;;;;;7.07;3.40;;;;;;;10.72;72.94;101042.53;5086497;57;1138904;-74
2021/05/24 03:58:55;;;;;;;3.20;2.43;;;;;;;10.78;73.13;101041.27;5084849;57;1138460;-78
2021/05/24 04:04:02;;;;;;;6.67;4.07;;;;;;;10.82;73.11;101044.07;5084850;57;1139106;-75
2021/05/24 04:09:09;;;;;;;3.13;2.80;;;;;;;10.83;73.07;101044.44;5084692;57;1138587;-79
2021/05/24 04:14:15;;;;;;;9.30;4.63;;;;;;;10.84;73.04;101046.13;5084596;57;1138376;-75
2021/05/24 04:19:21;;;;;;;5.43;2.90;;;;;;;10.87;73.06;101048.55;5040363;57;1138656;-75
2021/05/24 04:24:27;;;;;;;3.27;2.97;;;;;;;10.91;73.30;101055.31;5084507;57;1138971;-76
2021/05/24 04:29:33;;;;;;;4.07;2.20;;;;;;;10.97;73.56;101058.02;5084542;57;1139409;-81
2021/05/24 04:34:39;;;;;;;2.97;2.33;;;;;;;10.98;73.54;101073.80;5084435;57;1139085;-76
2021/05/24 04:39:45;;;;;;;2.97;2.03;;;;;;;10.93;73.54;101080.73;5084253;57;1138989;-77
2021/05/24 04:44:52;;;;;;;7.67;3.23;;;;;;;10.87;74.28;101080.30;5084558;57;1138916;-75
2021/05/24 04:49:58;;;;;;;3.33;2.30;;;;;;;10.86;74.31;101078.60;5084634;56;1138803;-76
2021/05/24 04:55:07;;;;;;;5.00;2.00;;;;;;;10.89;74.30;101077.91;5084630;57;1148918;-75
2021/05/24 05:00:15;;;;;;;4.45;1.90;;;;;;;11.07;74.50;101074.94;5084236;57;1138503;-75
2021/05/24 05:05:21;;;;;;;6.07;2.13;;;;;;;11.21;74.45;101069.50;5084364;57;1138389;-78
2021/05/24 05:10:27;;;;;;;2.13;1.70;;;;;;;11.36;74.42;101082.97;5041068;57;1138445;-78
2021/05/24 05:15:33;;;;;;;2.50;1.83;;;;;;;11.50;74.50;101079.32;5084233;57;1138898;-78
2021/05/24 05:20:39;;;;;;;3.93;1.43;;;;;;;11.64;74.40;101085.30;5084274;57;1139129;-78
2021/05/24 05:25:45;;;;;;;4.40;1.17;;;;;;;11.83;74.17;101084.00;5100641;56;1139174;-79
2021/05/24 05:30:52;;;;;;;1.42;1.32;;;;;;;12.04;73.70;101082.41;5092574;57;1139083;-79
2021/05/24 05:35:58;;;;;;;1.33;1.17;;;;;;;12.18;73.17;101080.05;5084672;57;1139107;-79
2021/05/24 05:41:05;;;;;;;4.03;1.45;;;;;;;12.35;73.22;101090.72;5084508;57;1138851;-75
2021/05/24 05:46:11;;;;;;;1.40;1.17;;;;;;;12.49;73.06;101088.70;5083537;57;1138931;-80
2021/05/24 05:51:17;;;;;;;4.20;1.53;;;;;;;12.63;71.54;101087.64;5164963;56;1138896;-76
2021/05/24 05:56:23;;;;;;;4.53;1.57;;;;;;;12.71;71.40;101087.87;5097563;56;1139066;-72
2021/05/24 06:01:29;;;;;;;0.93;0.83;;;;;;;12.83;70.59;101084.27;5100535;56;1139003;-76
2021/05/24 06:06:35;;;;;;;0.83;0.83;;;;;;;12.96;70.83;101092.14;5090814;56;1138899;-76
2021/05/24 06:11:41;;;;;;;1.87;1.10;;;;;;;13.33;68.43;101094.06;5098093;56;1138865;-81
2021/05/24 06:16:47;;;;;;;2.87;1.77;;;;;;;13.33;68.43;101094.06;5091139;56;1138810;-76
2021/05/24 06:21:53;;;;;;;0.90;0.90;;;;;;;13.49;68.68;101105.64;5102921;56;1138856;-79
2021/05/24 06:26:59;;;;;;;1.10;1.00;;;;;;;13.66;68.51;101103.80;5081952;56;1139220;-78
2021/05/24 06:32:06;;;;;;;1.32;1.22;;;;;;;13.87;67.13;101118.50;5106849;56;1139114;-82
2021/05/24 06:37:12;;;;;;;3.10;1.20;;;;;;;14.01;66.49;101121.71;5082659;56;1139184;-77
2021/05/24 06:42:18;;;;;;;1.57;1.20;;;;;;;14.17;66.24;101125.28;5090828;56;1139030;-73
2021/05/24 06:47:25;;;;;;;1.20;1.10;;;;;;;14.33;65.04;101133.67;5106260;56;1138853;-81
2021/05/24 06:52:32;;;;;;;1.53;1.03;;;;;;;14.51;65.33;101139.31;5105724;56;1138567;-77
2021/05/24 06:57:37;;;;;;;1.17;1.17;;;;;;;14.66;64.63;101139.34;5081238;56;1138892;-78
2021/05/24 07:02:47;;;;;;;1.10;1.00;;;;;;;14.84;63.99;101132.91;5082835;56;1138629;-76
2021/05/24 07:07:52;;;;;;;1.60;0.60;;;;;;;14.98;62.52;101135.23;5098165;56;1138897;-75
2021/05/24 07:12:58;;;;;;;1.77;1.05;;;;;;;15.18;60.79;101140.66;5123961;56;1139025;-77
2021/05/24 07:18:06;;;;;;;1.20;0.70;;;;;;;15.28;59.79;101143.72;5090535;56;1139207;-82
2021/05/24 07:23:13;;;;;;;6.47;0.90;;;;;;;15.39;59.36;101135.64;5093371;56;1139155;-76
2021/05/24 07:28:20;;;;;;;1.30;0.93;;;;;;;15.48;57.20;101138.82;5118867;56;1138946;-79
2021/05/24 07:33:25;;;;;;;0.70;0.70;;;;;;;15.69;59.14;101132.60;5147040;56;1138859;-77
2021/05/24 07:38:32;;;;;;;3.30;0.93;;;;;;;15.89;57.02;101137.49;5125915;56;1138677;-76
2021/05/24 07:43:38;;;;;;;0.70;0.70;;;;;;;15.99;57.52;101133.00;5110039;56;1138518;-76
2021/05/24 07:48:44;;;;;;;0.50;0.50;;;;;;;16.13;54.39;101140.59;5109736;56;1138409;-75
2021/05/24 07:53:50;;;;;;;0.93;0.40;;;;;;;16.27;53.59;101136.66;5125885;56;1138678;-80
2021/05/24 07:58:55;;;;;;;0.60;0.60;;;;;;;16.37;51.53;101135.67;5094217;56;1138965;-75
2021/05/24 08:04:01;;;;;;;3.50;0.50;;;;;;;16.47;50.07;101137.02;5108026;56;1138989;-73
2021/05/24 08:09:08;;;;;;;0.78;0.50;;;;;;;16.58;51.88;101125.33;5091255;56;1138657;-78
2021/05/24 08:14:17;;;;;;;2.20;0.50;;;;;;;16.79;52.70;101118.02;5109982;56;1138388;-75
2021/05/24 08:19:23;;;;;;;2.57;0.97;;;;;;;16.98;49.66;101120.61;5085088;56;1138751;-76
2021/05/24 08:24:29;;;;;;;0.77;0.40;;;;;;;17.09;50.75;101118.28;5090613;56;1138648;-76
2021/05/24 08:29:35;;;;;;;1.50;0.60;;;;;;;17.27;51.26;101094.26;5090652;56;1138663;-74
2021/05/24 08:34:41;;;;;;;4.83;0.70;;;;;;;17.40;50.38;101079.58;5083465;56;1138665;-76
2021/05/24 08:39:46;;;;;;;0.60;0.60;;;;;;;17.53;49.40;101078.73;5082094;56;1138753;-78
2021/05/24 08:44:52;;;;;;;3.63;0.60;;;;;;;17.67;49.82;101072.54;5082050;56;1138623;-77
2021/05/24 08:49:59;;;;;;;1.48;0.70;;;;;;;17.71;49.60;101072.59;5083153;56;1139110;-80
2021/05/24 08:55:06;;;;;;;0.70;0.70;;;;;;;17.62;50.00;101072.11;5106083;56;1139011;-83
2021/05/24 09:00:15;;;;;;;0.83;0.67;;;;;;;17.61;50.93;101054.37;5116132;56;1138946;-78
2021/05/24 09:05:24;;;;;;;0.60;0.60;;;;;;;17.78;49.47;101050.41;5099394;56;1138918;-75
2021/05/24 09:10:35;;;;;;;2.03;0.60;;;;;;;17.91;50.83;101050.02;5083076;56;1139024;-75
2021/05/24 09:15:43;;;;;;;1.13;0.70;;;;;;;17.99;51.08;101046.09;5082313;56;1138930;-76
2021/05/24 09:20:51;;;;;;;1.43;0.70;;;;;;;18.06;50.13;101035.10;5090017;56;1139225;-72
2021/05/24 09:26:07;;;;;;;8.13;1.00;;;;;;;18.11;47.53;101031.97;5083520;56;1139419;-75
2021/05/24 09:31:20;;;;;;;3.08;0.72;;;;;;;18.06;46.69;101035.59;5099158;56;1138909;-78
2021/05/24 09:36:28;;;;;;;0.40;0.40;;;;;;;18.11;47.14;101040.00;5098665;56;1139016;-76
2021/05/24 09:41:44;;;;;;;1.63;0.80;;;;;;;18.18;44.61;101028.50;5093307;56;1139547;-80
2021/05/24 09:46:51;;;;;;;4.17;0.50;;;;;;;18.17;46.86;101024.67;5083501;56;1139388;-76
2021/05/24 09:52:00;;;;;;;1.60;0.70;;;;;;;18.24;46.27;101020.35;5111231;56;1139137;-78
2021/05/24 09:57:13;;;;;;;1.72;1.55;;;;;;;18.30;45.89;101029.11;5082756;57;1139011;-78
2021/05/24 10:02:27;;;;;;;1.27;0.57;;;;;;;18.35;47.31;101032.14;5111615;56;1138936;-78
2021/05/24 10:07:33;;;;;;;2.87;1.30;;;;;;;18.38;46.66;101030.99;5099070;56;1139212;-75
2021/05/24 10:12:40;;;;;;;5.13;2.47;;;;;;;18.15;46.96;100982.48;5083566;56;1139222;-77
2021/05/24 10:17:51;;;;;;;1.30;0.70;;;;;;;18.15;46.96;100982.48;5103696;56;1139418;-76
2021/05/24 10:22:57;;;;;;;17.27;5.87;;;;;;;18.19;47.11;101002.07;5084407;56;1138935;-79
2021/05/24 10:28:06;;;;;;;3.95;1.30;;;;;;;18.26;47.72;101004.98;5068414;56;1140973;-78
2021/05/24 10:33:14;;;;;;;2.72;1.20;;;;;;;18.36;46.92;100999.01;5095167;56;1138986;-76
2021/05/24 10:38:33;;;;;;;50.40;13.53;;;;;;;18.40;47.99;100996.86;5074952;56;1138741;-77
2021/05/24 10:43:57;;;;;;;39.27;11.53;;;;;;;18.44;46.61;101001.75;5111120;56;1143332;-75
2021/05/24 10:49:07;;;;;;;6.95;1.70;;;;;;;18.49;46.84;101003.94;5107519;56;1142773;-77
2021/05/24 10:54:26;;;;;;;1.40;0.75;;;;;;;18.51;45.76;101000.60;5085689;56;1138570;-77
2021/05/24 10:59:48;;;;;;;0.77;0.77;;;;;;;18.51;46.12;100994.75;5075269;56;1138431;-78
2021/05/24 11:04:58;;;;;;;0.77;0.60;;;;;;;18.50;45.45;100998.42;5114072;56;1138421;-73
2021/05/24 11:10:20;;;;;;;1.45;0.80;;;;;;;18.46;46.71;100984.19;5099466;56;1138651;-76
2021/05/24 11:15:35;;;;;;;22.70;6.90;;;;;;;18.53;46.38;100984.72;5111968;56;1138484;-75
2021/05/24 11:21:02;;;;;;;10.03;2.50;;;;;;;18.63;47.02;100974.44;5103674;56;1140605;-78
2021/05/24 11:26:37;;;;;;;5.22;0.82;;;;;;;18.58;45.89;100965.50;5073970;56;1140757;-76
2021/05/24 11:31:42;;;;;;;4.13;0.77;;;;;;;18.67;44.48;100953.84;5087166;56;1139064;-78
2021/05/24 11:36:51;;;;;;;10.77;5.63;;;;;;;18.71;44.71;100943.64;5080973;56;1139211;-73
2021/05/24 11:42:04;;;;;;;20.33;7.53;;;;;;;18.86;46.21;100913.89;5083204;56;1141266;-76
2021/05/24 11:47:13;;;;;;;;;;;;;;;18.98;45.80;100914.75;5101549;56;1141041;-74
2021/05/24 11:52:25;;;;;;;1.57;1.17;;;;;;;19.08;44.16;100904.41;5103870;56;976356;-79
2021/05/24 11:57:37;;;;;;;5.62;2.85;;;;;;;19.04;43.73;100897.69;5099568;56;1137123;-79
2021/05/24 12:02:44;;;;;;;3.37;1.27;;;;;;;19.17;43.78;100909.61;5089070;56;1139368;-76
2021/05/24 12:07:53;;;;;;;0.70;0.68;;;;;;;19.29;41.45;100904.76;5091956;56;1139086;-78
2021/05/24 12:12:58;;;;;;;4.58;0.60;;;;;;;19.54;41.55;100901.14;5084096;56;1139187;-78
2021/05/24 12:18:07;;;;;;;1.80;1.10;;;;;;;19.75;37.76;100907.31;5091649;56;1139475;-77
2021/05/24 12:23:15;;;;;;;9.53;1.02;;;;;;;20.00;40.65;100901.42;5083204;56;1139377;-72
2021/05/24 12:28:21;;;;;;;9.83;3.60;;;;;;;20.15;39.67;100890.82;5083370;56;1138631;-74
2021/05/24 12:33:27;;;;;;;6.40;3.55;;;;;;;20.02;38.22;100877.40;5082874;56;1138762;-73
2021/05/24 12:38:41;;;;;;;13.68;4.92;;;;;;;19.96;38.38;100866.02;5083741;56;1138665;-77
2021/05/24 12:43:58;;;;;;;2.98;0.88;;;;;;;20.12;38.26;100864.30;5061637;56;1141002;-77
2021/05/24 12:49:04;;;;;;;1.67;1.15;;;;;;;20.18;39.82;100833.55;5083007;56;1138402;-80
2021/05/24 12:54:11;;;;;;;4.45;2.15;;;;;;;20.33;39.37;100827.78;5098725;56;1138485;-81
2021/05/24 12:59:24;;;;;;;8.15;3.58;;;;;;;20.49;38.91;100804.56;5106343;56;1138631;-81
2021/05/24 13:04:31;;;;;;;4.35;1.40;;;;;;;20.54;38.07;100807.56;5125360;56;1138701;-75
2021/05/24 13:09:37;;;;;;;6.12;2.33;;;;;;;20.59;38.72;100785.04;5083585;56;1138365;-73
2021/05/24 13:14:54;;;;;;;14.50;8.65;;;;;;;20.60;37.69;100787.55;5100381;56;1138434;-79
2021/05/24 13:30:44;;;;;;;5.78;2.75;;;;;;;20.71;36.87;100750.85;5084101;56;1138473;-82
2021/05/24 13:35:49;;;;;;;2.37;0.78;;;;;;;20.69;37.13;100758.25;5092167;56;1138612;-81
2021/05/24 13:40:55;;;;;;;0.68;0.40;;;;;;;20.69;36.43;100743.47;5100361;56;1138615;-75
2021/05/24 13:46:02;;;;;;;24.72;8.35;;;;;;;20.81;35.46;100759.17;5083840;57;1138945;-78
2021/05/24 13:51:08;;;;;;;0.77;0.77;;;;;;;20.77;36.68;100745.78;5084439;57;1140500;-77
2021/05/24 13:56:14;;;;;;;1.47;1.13;;;;;;;20.82;37.75;100752.78;5084336;57;1138566;-81
2021/05/24 14:01:20;;;;;;;1.83;0.70;;;;;;;20.87;38.20;100750.40;5084300;57;1138393;-78
2021/05/24 14:06:26;;;;;;;3.02;2.08;;;;;;;20.84;38.78;100742.18;5084108;57;1139140;-79
2021/05/24 14:11:32;;;;;;;5.10;1.87;;;;;;;20.96;38.84;100736.70;5083840;57;1139113;-83
2021/05/24 14:16:38;;;;;;;2.47;0.88;;;;;;;21.06;38.84;100738.64;5084124;57;1139102;-83
2021/05/24 14:21:45;;;;;;;0.60;0.60;;;;;;;20.98;38.54;100733.83;5083844;57;1139044;-84
2021/05/24 14:26:50;;;;;;;4.17;0.98;;;;;;;20.86;38.47;100737.97;5125660;57;1138861;-84
2021/05/24 14:31:56;;;;;;;2.75;0.40;;;;;;;20.80;39.36;100731.45;5137319;57;1139162;-80
2021/05/24 14:37:02;;;;;;;4.48;1.38;;;;;;;20.77;39.47;100716.22;5137650;57;1139007;-80
2021/05/24 14:42:08;;;;;;;1.55;1.05;;;;;;;20.73;39.16;100711.70;5142303;56;1139334;-78
2021/05/24 14:47:15;;;;;;;1.15;0.62;;;;;;;20.69;38.43;100707.19;5151191;56;1138947;-84
2021/05/24 14:52:22;;;;;;;1.52;0.60;;;;;;;20.74;37.78;100703.12;5150946;56;1138902;-87
2021/05/24 14:57:29;;;;;;;1.87;0.78;;;;;;;20.74;38.79;100677.59;5151044;56;1139138;-76
2021/05/24 15:02:35;;;;;;;6.35;0.80;;;;;;;20.70;38.85;100667.70;5150816;56;1138942;-79
2021/05/24 15:07:42;;;;;;;0.65;0.65;;;;;;;20.60;38.45;100667.13;5151055;56;1139151;-79
2021/05/24 15:12:50;;;;;;;0.60;0.60;;;;;;;20.46;38.79;100665.22;5151182;56;1139123;-76
2021/05/24 15:17:56;;;;;;;6.83;1.70;;;;;;;20.40;39.22;100649.81;5151153;56;1138896;-84
2021/05/24 15:23:02;;;;;;;1.25;0.75;;;;;;;20.40;40.43;100647.96;5131212;56;1138912;-73
2021/05/24 15:28:09;;;;;;;1.65;0.90;;;;;;;20.28;39.46;100650.20;5151199;56;1138944;-81
2021/05/24 15:33:19;;;;;;;1.00;0.80;;;;;;;20.16;39.30;100642.73;5151230;56;1138894;-82
2021/05/24 15:38:32;;;;;;;0.93;0.80;;;;;;;20.14;40.45;100648.80;5151295;56;1138959;-81
2021/05/24 15:43:38;;;;;;;4.72;0.70;;;;;;;20.14;40.64;100632.17;5151496;56;1138855;-85
2021/05/24 15:48:45;;;;;;;3.58;0.95;;;;;;;20.20;40.50;100618.52;5151112;56;1138892;-85
2021/05/24 15:53:51;;;;;;;6.80;1.10;;;;;;;20.23;40.69;100614.98;5151147;56;1139096;-86
2021/05/24 15:58:56;;;;;;;1.75;1.22;;;;;;;20.17;40.09;100604.94;5151299;56;1139406;-79
2021/05/24 16:04:02;;;;;;;1.55;1.07;;;;;;;20.02;40.45;100595.48;5150967;56;1139106;-80
2021/05/24 16:09:12;;;;;;;2.30;1.30;;;;;;;19.98;41.09;100605.43;5151647;56;1138915;-79
2021/05/24 16:14:18;;;;;;;1.95;0.85;;;;;;;19.92;41.43;100595.39;5151829;56;1138923;-76
2021/05/24 16:19:28;;;;;;;4.15;1.92;;;;;;;19.85;41.45;100588.57;5151484;56;1138496;-79
2021/05/24 16:24:55;;;;;;;15.53;5.08;;;;;;;19.80;42.23;100592.28;5130765;56;1138860;-77
2021/05/24 16:29:39;;;;;;;12.58;6.37;;;;;;;19.72;42.26;100593.66;5061132;57;1140725;-85
2021/05/24 16:34:45;;;;;;;5.75;3.05;;;;;;;19.61;42.11;100588.69;5065860;57;1140585;-77
2021/05/24 16:39:51;;;;;;;8.73;1.40;;;;;;;19.54;42.13;100572.48;5066113;57;1138474;-81
2021/05/24 16:44:57;;;;;;;5.30;1.00;;;;;;;19.46;41.93;100569.78;5066178;57;1139239;-79
2021/05/24 16:50:04;;;;;;;2.10;1.42;;;;;;;19.39;42.17;100570.17;5066360;57;1138707;-77
2021/05/24 16:55:13;;;;;;;3.00;1.27;;;;;;;19.37;42.75;100567.33;4948062;58;1138500;-79
2021/05/24 17:00:20;;;;;;;3.92;1.47;;;;;;;19.32;43.09;100560.63;5066176;57;1138464;-76
2021/05/24 17:05:27;;;;;;;2.00;1.90;;;;;;;19.25;43.06;100543.55;5066396;57;1138616;-84
2021/05/24 17:10:35;;;;;;;7.35;1.60;;;;;;;19.15;43.62;100534.06;5066472;57;1138423;-78
2021/05/24 17:15:44;;;;;;;3.05;1.87;;;;;;;19.09;43.76;100528.91;5066606;57;1138897;-79
2021/05/24 17:20:49;;;;;;;9.10;4.12;;;;;;;19.03;43.92;100539.48;5066565;57;1138442;-79
2021/05/24 17:25:55;;;;;;;3.83;2.13;;;;;;;19.01;44.17;100541.48;5066686;57;1138504;-76
2021/05/24 17:31:00;;;;;;;2.87;2.25;;;;;;;18.97;44.26;100540.48;5066874;57;1138519;-76
2021/05/24 17:57:41;;;;;;;3.87;1.30;;;;;;;18.84;45.91;100503.19;5293038;54;46898;-75
2021/05/24 18:02:48;;;;;;;2.17;1.37;;;;;;;18.72;45.76;100488.49;5076228;56;1134512;-77
2021/05/24 18:07:54;;;;;;;5.33;1.20;;;;;;;18.67;45.98;100483.64;5079016;56;1138669;-78
2021/05/24 18:13:02;;;;;;;5.27;1.23;;;;;;;18.65;46.21;100491.01;5076746;56;1138591;-77
2021/05/24 18:18:12;;;;;;;3.00;2.80;;;;;;;18.61;46.35;100498.58;5075861;56;1138882;-79
2021/05/24 18:23:17;;;;;;;2.95;2.40;;;;;;;18.58;46.49;100493.56;5075468;57;1138961;-77
2021/05/24 18:28:23;;;;;;;11.05;2.40;;;;;;;18.54;46.78;100496.70;5075715;56;1139008;-77
2021/05/24 18:33:33;;;;;;;3.87;2.30;;;;;;;18.49;47.02;100509.77;5074927;57;1140952;-79
2021/05/24 18:38:40;;;;;;;2.30;2.00;;;;;;;18.45;47.13;100509.30;5070385;56;1138869;-76
2021/05/24 18:43:46;;;;;;;5.07;3.17;;;;;;;18.41;47.22;100524.02;5095926;57;1138713;-78
2021/05/24 18:48:52;;;;;;;2.77;1.67;;;;;;;18.35;47.53;100526.02;5089516;57;1138759;-78
2021/05/24 18:53:58;;;;;;;9.43;5.53;;;;;;;18.30;47.58;100543.12;5047823;57;1138726;-79
2021/05/24 18:59:05;;;;;;;4.50;2.30;;;;;;;18.27;47.92;100535.42;5096431;56;1138689;-77
2021/05/24 19:04:26;;;;;;;2.50;1.50;;;;;;;18.22;48.11;100533.23;5108472;56;1138651;-77
2021/05/24 19:09:27;;;;;;;5.63;2.27;;;;;;;18.18;48.35;100518.50;5073635;56;1138961;-77
2021/05/24 19:14:35;;;;;;;5.90;2.83;;;;;;;18.12;48.53;100527.22;5070719;56;1138861;-72
2021/05/24 19:19:41;;;;;;;2.90;2.53;;;;;;;18.07;48.73;100527.38;5074069;56;1138896;-78
2021/05/24 19:24:48;;;;;;;4.20;2.30;;;;;;;18.02;48.96;100521.21;5077089;56;1138925;-78
2021/05/24 19:29:54;;;;;;;4.37;2.70;;;;;;;17.93;49.22;100519.02;5077179;56;1138798;-76
2021/05/24 19:35:02;;;;;;;6.37;2.33;;;;;;;17.86;49.52;100513.17;5077537;56;1139083;-73
2021/05/24 19:40:11;;;;;;;4.63;2.67;;;;;;;17.81;49.72;100508.81;5074557;56;1138957;-77
2021/05/24 19:45:18;;;;;;;8.83;2.40;;;;;;;17.75;49.96;100503.61;5074231;56;1139340;-76
2021/05/24 20:28:12;;;;;;;6.62;2.68;;;;;;;17.34;52.13;100452.38;5078278;56;1138862;-76
2021/05/24 20:33:20;;;;;;;6.58;2.45;;;;;;;17.31;52.10;100445.52;5077884;56;1138384;-75
2021/05/24 20:38:26;;;;;;;3.87;2.40;;;;;;;17.28;52.34;100439.66;5078015;56;1138371;-80
2021/05/24 20:43:32;;;;;;;4.37;2.87;;;;;;;17.24;52.60;100429.81;5078046;56;1138361;-76
2021/05/24 20:48:38;;;;;;;6.07;3.00;;;;;;;17.20;52.78;100421.28;5077803;56;1138590;-74
2021/05/24 20:53:44;;;;;;;10.67;2.67;;;;;;;17.16;53.02;100420.42;5077657;56;1138409;-75
2021/05/24 20:58:52;;;;;;;5.53;3.23;;;;;;;17.12;53.37;100415.06;5077721;56;1140894;-75
2021/05/24 21:03:58;;;;;;;7.77;2.93;;;;;;;17.08;53.62;100408.40;5078193;56;1138648;-78
2021/05/24 21:09:06;;;;;;;16.30;4.10;;;;;;;17.04;54.06;100391.02;5077457;56;1138542;-76
2021/05/24 21:14:12;;;;;;;5.58;3.68;;;;;;;17.00;54.18;100381.64;5077886;56;1141104;-80
2021/05/24 21:19:18;;;;;;;5.67;3.07;;;;;;;16.92;54.89;100365.61;5078061;56;1138908;-81
2021/05/24 21:24:24;;;;;;;5.33;3.65;;;;;;;16.87;55.00;100359.41;5077776;56;1138612;-78
2021/05/24 21:29:30;;;;;;;6.80;3.23;;;;;;;16.81;55.00;100362.72;5077771;56;1138813;-78
2021/05/24 21:39:59;;;;;;;12.03;4.77;;;;;;;16.70;55.58;100352.34;5077544;56;1140679;-75
2021/05/24 21:45:06;;;;;;;10.77;3.57;;;;;;;16.66;55.80;100358.50;5077258;56;1140416;-80
2021/05/24 21:50:13;;;;;;;11.03;3.87;;;;;;;16.63;56.00;100352.67;5077489;56;1140595;-77
2021/05/24 21:55:22;;;;;;;6.78;3.45;;;;;;;16.59;56.20;100350.79;5077830;56;1140572;-78
2021/05/24 22:00:33;;;;;;;7.87;3.43;;;;;;;16.52;56.39;100347.91;5070345;56;1138554;-77
2021/05/24 22:05:41;;;;;;;5.27;3.70;;;;;;;16.48;56.89;100347.92;5044838;57;1138634;-79
2021/05/24 22:10:48;;;;;;;7.77;4.00;;;;;;;16.45;57.06;100339.39;5044953;57;1138979;-77
2021/05/24 22:15:54;;;;;;;7.97;3.60;;;;;;;16.38;57.23;100340.52;5044795;57;1138877;-78
2021/05/24 22:21:00;;;;;;;6.87;3.67;;;;;;;16.35;57.74;100338.66;5044626;57;1138860;-76
2021/05/24 22:26:06;;;;;;;11.60;3.70;;;;;;;16.31;57.59;100335.50;5044917;57;1138887;-76
2021/05/24 22:31:12;;;;;;;10.53;3.37;;;;;;;16.28;57.82;100329.15;5044842;57;1141168;-78
2021/05/24 22:36:18;;;;;;;10.72;4.00;;;;;;;16.26;57.93;100332.47;5044729;57;1141071;-79
2021/05/24 22:41:25;;;;;;;14.38;3.22;;;;;;;16.23;58.09;100326.61;5045205;57;1141309;-76
2021/05/24 22:46:31;;;;;;;10.45;4.00;;;;;;;16.17;58.05;100323.60;5045069;57;1141199;-77
2021/05/24 22:51:37;;;;;;;8.73;3.63;;;;;;;16.15;58.34;100320.26;5045732;57;1141414;-77
2021/05/24 22:56:44;;;;;;;6.13;3.67;;;;;;;16.15;58.88;100314.08;5045967;57;1139123;-77
2021/05/24 23:01:50;;;;;;;10.83;4.23;;;;;;;16.11;58.76;100304.72;5050821;56;1139284;-79
2021/05/24 23:06:56;;;;;;;5.70;3.57;;;;;;;16.07;59.12;100296.69;5077894;56;1140876;-78
2021/05/24 23:12:02;;;;;;;7.30;3.70;;;;;;;15.97;59.66;100299.98;5078298;56;1138890;-78
2021/05/24 23:17:08;;;;;;;5.27;3.13;;;;;;;15.97;59.66;100299.98;5077980;56;1138983;-79
2021/05/24 23:22:14;;;;;;;6.77;3.93;;;;;;;15.93;59.94;100303.95;5077973;56;1138866;-80
2021/05/24 23:27:20;;;;;;;5.10;3.15;;;;;;;15.88;60.12;100303.61;5065072;56;1139028;-79
2021/05/24 23:32:26;;;;;;;4.00;3.08;;;;;;;15.82;60.12;100291.23;5078019;56;1138839;-76
2021/05/24 23:37:32;;;;;;;8.63;3.40;;;;;;;15.81;60.04;100282.90;5077958;56;1138927;-78
2021/05/24 23:42:39;;;;;;;8.30;3.83;;;;;;;15.82;60.20;100287.23;5077726;56;1139035;-76
2021/05/24 23:47:45;;;;;;;3.97;2.87;;;;;;;15.81;60.00;100271.39;5078140;56;1139100;-76
2021/05/24 23:52:51;;;;;;;6.63;3.03;;;;;;;15.78;60.19;100267.20;5077796;56;1138891;-77
2021/05/24 23:57:57;;;;;;;7.03;3.90;;;;;;;15.76;60.14;100261.19;5077863;56;1138934;-76
